createdAt,value
2018-10-16T00:02:18.602Z,5.47
2018-10-16T00:04:47.814Z,8.25
2018-10-16T00:07:16.870Z,5.92
2018-10-16T00:09:45.935Z,5.22
2018-10-16T00:12:15.232Z,6.28
2018-10-16T00:14:44.339Z,6.45
2018-10-16T00:17:13.363Z,10.05
2018-10-16T00:19:42.723Z,8.78
2018-10-16T00:22:11.828Z,9.65
2018-10-16T00:24:40.840Z,6.75
2018-10-16T00:27:10.263Z,11.63
2018-10-16T00:29:39.519Z,9.18
2018-10-16T00:32:08.621Z,16.73
2018-10-16T00:34:37.655Z,23.98
2018-10-16T00:37:06.912Z,13.60
2018-10-16T00:39:35.816Z,12.33
2018-10-16T00:42:05.336Z,13.35
2018-10-16T00:44:34.588Z,14.65
2018-10-16T00:47:03.607Z,14.83
2018-10-16T00:49:33.162Z,13.60
2018-10-16T00:52:02.227Z,14.45
2018-10-16T00:54:31.375Z,16.37
2018-10-16T00:57:00.631Z,14.80
2018-10-16T00:59:29.718Z,13.22
2018-10-16T01:01:59.198Z,13.38
2018-10-16T01:04:28.310Z,13.18
2018-10-16T01:06:57.415Z,12.23
2018-10-16T01:09:26.546Z,12.63
2018-10-16T01:11:55.780Z,11.85
2018-10-16T01:14:24.992Z,11.50
2018-10-16T01:16:54.330Z,15.03
2018-10-16T01:19:23.654Z,17.12
2018-10-16T01:21:52.818Z,14.03
2018-10-16T01:24:22.267Z,15.03
2018-10-16T01:26:52.079Z,12.73
2018-10-16T01:29:21.135Z,20.25
2018-10-16T01:31:50.596Z,19.20
2018-10-16T01:34:19.699Z,12.68
2018-10-16T01:36:48.767Z,11.48
2018-10-16T01:39:18.036Z,15.68
2018-10-16T01:41:47.193Z,14.73
2018-10-16T01:44:16.271Z,13.38
2018-10-16T01:46:45.587Z,18.62
2018-10-16T01:49:14.718Z,16.85
2018-10-16T01:51:43.923Z,16.25
2018-10-16T01:54:13.091Z,12.55
2018-10-16T01:56:42.150Z,15.55
2018-10-16T01:59:11.212Z,17.48
2018-10-16T02:01:40.230Z,21.30
2018-10-16T02:04:09.313Z,13.95
2018-10-16T02:06:38.600Z,15.68
2018-10-16T02:09:10.421Z,25.08
2018-10-16T02:11:39.416Z,14.58
2018-10-16T02:14:08.645Z,17.50
2018-10-16T02:16:38.189Z,18.55
2018-10-16T02:19:07.273Z,16.40
2018-10-16T02:21:36.696Z,17.98
2018-10-16T02:24:06.014Z,17.85
2018-10-16T02:26:35.166Z,14.68
2018-10-16T02:29:04.366Z,12.47
2018-10-16T02:31:33.683Z,13.88
2018-10-16T02:34:02.866Z,17.10
2018-10-16T02:36:32.071Z,15.60
2018-10-16T02:39:01.591Z,16.77
2018-10-16T02:41:30.874Z,24.23
2018-10-16T02:44:00.731Z,15.35
2018-10-16T02:46:29.914Z,15.85
2018-10-16T02:48:59.104Z,20.88
2018-10-16T02:51:28.190Z,16.93
2018-10-16T02:53:57.367Z,19.37
2018-10-16T02:56:26.450Z,14.83
2018-10-16T02:58:55.680Z,17.90
2018-10-16T03:01:25.086Z,10.82
2018-10-16T03:03:54.292Z,16.60
2018-10-16T03:06:23.583Z,17.77
2018-10-16T03:08:53.218Z,13.43
2018-10-16T03:11:22.621Z,12.00
2018-10-16T03:13:51.677Z,8.38
2018-10-16T03:16:21.120Z,8.28
2018-10-16T03:18:50.318Z,16.30
2018-10-16T03:21:19.351Z,8.45
2018-10-16T03:23:48.684Z,12.07
2018-10-16T03:26:17.851Z,11.15
2018-10-16T03:28:47.139Z,14.40
2018-10-16T03:31:16.378Z,15.75
2018-10-16T03:33:45.642Z,20.20
2018-10-16T03:36:14.747Z,17.62
2018-10-16T03:38:43.916Z,17.90
2018-10-16T03:41:13.148Z,18.50
2018-10-16T03:43:42.050Z,12.93
2018-10-16T03:46:11.458Z,14.78
2018-10-16T03:48:40.726Z,10.30
2018-10-16T03:51:09.838Z,11.40
2018-10-16T03:53:39.291Z,12.18
2018-10-16T03:56:08.506Z,13.58
2018-10-16T03:58:37.752Z,15.08
2018-10-16T04:01:07.138Z,26.07
2018-10-16T04:03:36.147Z,16.00
2018-10-16T04:06:05.235Z,16.32
2018-10-16T04:08:34.451Z,8.85
2018-10-16T04:11:03.586Z,9.15
2018-10-16T04:13:32.635Z,26.82
2018-10-16T04:16:01.834Z,17.52
2018-10-16T04:18:30.903Z,20.85
2018-10-16T04:20:59.959Z,25.15
2018-10-16T04:23:29.147Z,16.30
2018-10-16T04:25:58.419Z,26.23
2018-10-16T04:28:27.731Z,29.20
2018-10-16T04:30:57.244Z,15.90
2018-10-16T04:33:26.411Z,20.12
2018-10-16T04:35:55.511Z,29.30
2018-10-16T04:38:24.647Z,21.37
2018-10-16T04:40:53.774Z,25.32
2018-10-16T04:43:23.042Z,28.07
2018-10-16T04:45:52.236Z,24.30
2018-10-16T04:48:21.617Z,27.25
2018-10-16T04:50:50.919Z,19.60
2018-10-16T04:53:20.015Z,20.92
2018-10-16T04:55:49.019Z,18.10
2018-10-16T04:58:18.211Z,24.75
2018-10-16T05:00:47.602Z,20.08
2018-10-16T05:03:16.812Z,24.82
2018-10-16T05:05:46.017Z,19.05
2018-10-16T05:08:15.427Z,18.70
2018-10-16T05:10:44.719Z,35.05
2018-10-16T05:13:14.018Z,28.85
2018-10-16T05:15:43.503Z,36.40
2018-10-16T05:18:12.500Z,39.83
2018-10-16T05:20:41.563Z,43.13
2018-10-16T05:23:10.927Z,29.95
2018-10-16T05:25:39.939Z,49.13
2018-10-16T05:28:09.112Z,39.25
2018-10-16T05:30:38.431Z,41.80
2018-10-16T05:33:07.515Z,34.35
2018-10-16T05:35:36.599Z,51.15
2018-10-16T05:38:05.662Z,53.52
2018-10-16T05:40:34.755Z,27.93
2018-10-16T05:43:04.092Z,41.65
2018-10-16T05:45:35.059Z,31.70
2018-10-16T05:48:04.184Z,24.52
2018-10-16T05:50:33.395Z,22.40
2018-10-16T05:53:02.736Z,22.77
2018-10-16T05:55:32.059Z,28.67
2018-10-16T05:58:01.522Z,35.35
2018-10-16T06:00:40.385Z,29.37
2018-10-16T06:03:09.770Z,31.87
2018-10-16T06:05:39.388Z,35.95
2018-10-16T06:08:08.792Z,25.35
2018-10-16T06:10:38.315Z,30.08
2018-10-16T06:13:07.482Z,31.20
2018-10-16T06:15:36.504Z,45.35
2018-10-16T06:18:05.636Z,35.30
2018-10-16T06:20:35.175Z,38.63
2018-10-16T06:23:04.728Z,44.70
2018-10-16T06:25:33.903Z,40.55
2018-10-16T06:28:20.661Z,38.53
2018-10-16T06:30:49.735Z,33.08
2018-10-16T06:33:21.753Z,42.13
2018-10-16T06:35:50.974Z,31.07
2018-10-16T06:38:20.072Z,43.02
2018-10-16T06:40:49.213Z,35.75
2018-10-16T06:43:18.193Z,33.05
2018-10-16T06:45:47.409Z,24.57
2018-10-16T06:48:16.945Z,30.37
2018-10-16T06:50:45.867Z,25.90
2018-10-16T06:53:14.995Z,23.67
2018-10-16T06:55:44.278Z,22.40
2018-10-16T06:58:13.368Z,25.90
2018-10-16T07:00:42.509Z,17.77
2018-10-16T07:03:11.682Z,19.30
2018-10-16T07:05:40.860Z,19.95
2018-10-16T07:08:10.155Z,20.25
2018-10-16T07:10:39.578Z,20.08
2018-10-16T07:13:08.763Z,26.50
2018-10-16T07:15:37.962Z,23.30
2018-10-16T07:18:07.296Z,29.63
2018-10-16T07:20:36.591Z,23.52
2018-10-16T07:23:05.575Z,21.10
2018-10-16T07:25:35.038Z,18.87
2018-10-16T07:28:04.404Z,22.75
2018-10-16T07:30:33.577Z,20.32
2018-10-16T07:33:02.948Z,26.55
2018-10-16T07:35:32.068Z,18.25
2018-10-16T07:38:01.422Z,19.77
2018-10-16T07:40:32.500Z,19.23
2018-10-16T07:43:01.656Z,23.70
2018-10-16T07:45:30.731Z,19.15
2018-10-16T07:48:00.500Z,19.12
2018-10-16T07:50:29.616Z,20.85
2018-10-16T07:52:58.543Z,28.67
2018-10-16T07:55:27.948Z,20.35
2018-10-16T07:57:57.116Z,22.20
2018-10-16T08:00:26.191Z,29.25
2018-10-16T08:02:55.626Z,28.15
2018-10-16T08:05:24.912Z,17.00
2018-10-16T08:07:54.055Z,18.40
2018-10-16T08:10:23.438Z,18.37
2018-10-16T08:12:52.468Z,20.15
2018-10-16T08:15:21.611Z,21.82
2018-10-16T08:17:51.051Z,18.23
2018-10-16T08:20:20.155Z,22.40
2018-10-16T08:22:49.287Z,18.05
2018-10-16T08:25:18.359Z,14.15
2018-10-16T08:27:47.475Z,16.20
2018-10-16T08:30:16.501Z,16.20
2018-10-16T08:32:45.803Z,14.10
2018-10-16T08:35:14.983Z,23.47
2018-10-16T08:38:27.870Z,19.62
2018-10-16T08:40:58.004Z,19.25
2018-10-16T08:43:44.691Z,15.75
2018-10-16T08:46:24.497Z,12.37
2018-10-16T08:49:04.951Z,19.27
2018-10-16T08:51:47.103Z,16.73
2018-10-16T08:54:16.375Z,16.85
2018-10-16T08:56:45.645Z,13.98
2018-10-16T08:59:15.815Z,16.75
2018-10-16T09:01:45.251Z,14.58
2018-10-16T09:04:14.712Z,20.35
2018-10-16T09:06:44.052Z,16.55
2018-10-16T09:09:15.036Z,23.92
2018-10-16T09:11:45.258Z,7.15
2018-10-16T09:14:14.895Z,13.20
2018-10-16T09:16:44.511Z,12.18
2018-10-16T09:19:13.681Z,13.45
2018-10-16T09:21:42.863Z,8.70
2018-10-16T09:24:12.205Z,9.35
2018-10-16T09:26:41.923Z,8.85
2018-10-16T09:29:10.983Z,7.45
2018-10-16T09:31:40.319Z,6.33
2018-10-16T09:34:09.495Z,9.68
2018-10-16T09:36:38.518Z,9.00
2018-10-16T09:39:10.497Z,5.15
2018-10-16T09:41:39.738Z,8.63
2018-10-16T09:44:09.027Z,3.12
2018-10-16T09:46:38.637Z,5.72
2018-10-16T09:49:07.807Z,6.78
2018-10-16T09:51:36.846Z,3.98
2018-10-16T09:54:06.283Z,2.47
2018-10-16T09:56:35.860Z,3.85
2018-10-16T09:59:05.151Z,2.10
2018-10-16T10:01:39.542Z,2.58
2018-10-16T10:04:08.663Z,2.58
2018-10-16T10:06:37.683Z,3.42
2018-10-16T10:09:10.295Z,5.00
2018-10-16T10:11:39.355Z,3.67
2018-10-16T10:14:08.450Z,2.85
2018-10-16T10:16:38.151Z,2.33
2018-10-16T10:19:07.423Z,6.60
2018-10-16T10:21:36.767Z,1.72
2018-10-16T10:24:06.337Z,1.87
2018-10-16T10:26:35.347Z,1.72
2018-10-16T10:29:04.439Z,3.67
2018-10-16T10:31:34.004Z,4.80
2018-10-16T10:34:03.179Z,5.87
2018-10-16T10:36:32.379Z,1.77
2018-10-16T10:39:01.913Z,1.02
2018-10-16T10:41:31.083Z,10.48
2018-10-16T10:44:00.075Z,3.80
2018-10-16T10:46:29.356Z,3.83
2018-10-16T10:48:58.370Z,2.98
2018-10-16T10:51:27.576Z,6.15
2018-10-16T10:53:56.787Z,1.02
2018-10-16T10:56:26.002Z,3.40
2018-10-16T10:58:55.264Z,0.60
2018-10-16T11:01:24.780Z,4.40
2018-10-16T11:03:53.965Z,1.40
2018-10-16T11:06:23.174Z,1.42
2018-10-16T11:08:52.652Z,2.67
2018-10-16T11:11:21.781Z,0.98
2018-10-16T11:13:50.773Z,0.50
2018-10-16T11:16:20.491Z,1.00
2018-10-16T11:18:49.584Z,0.95
2018-10-16T11:21:18.772Z,2.50
2018-10-16T11:23:48.107Z,0.65
2018-10-16T11:26:17.895Z,3.08
2018-10-16T11:28:46.928Z,2.83
2018-10-16T11:31:16.484Z,1.90
2018-10-16T11:33:45.780Z,7.47
2018-10-16T11:36:14.799Z,1.57
2018-10-16T11:38:44.027Z,1.77
2018-10-16T11:41:13.107Z,1.15
2018-10-16T11:43:42.238Z,1.42
2018-10-16T11:46:11.734Z,3.12
2018-10-16T11:48:40.968Z,1.90
2018-10-16T11:51:10.271Z,0.98
2018-10-16T11:53:39.718Z,0.95
2018-10-16T11:56:08.938Z,1.42
2018-10-16T11:58:37.935Z,0.50
2018-10-16T12:01:06.970Z,0.60
2018-10-16T12:03:36.093Z,4.28
2018-10-16T12:06:05.664Z,4.05
2018-10-16T12:08:35.014Z,1.72
2018-10-16T12:11:04.192Z,2.90
2018-10-16T12:13:33.490Z,2.45
2018-10-16T12:16:02.829Z,1.85
2018-10-16T12:18:37.063Z,1.87
2018-10-16T12:21:25.879Z,0.40
2018-10-16T12:23:54.912Z,0.78
2018-10-16T12:26:24.039Z,1.00
2018-10-16T12:28:53.368Z,7.42
2018-10-16T12:31:22.571Z,0.75
2018-10-16T12:33:51.673Z,2.37
2018-10-16T12:36:21.130Z,1.85
2018-10-16T12:38:50.222Z,0.42
2018-10-16T12:41:19.346Z,0.78
2018-10-16T12:43:48.992Z,2.40
2018-10-16T12:46:18.182Z,1.95
2018-10-16T12:48:47.447Z,1.55
2018-10-16T12:51:16.631Z,0.37
2018-10-16T12:53:45.621Z,3.25
2018-10-16T12:56:14.902Z,6.42
2018-10-16T12:58:44.082Z,3.22
2018-10-16T13:01:13.783Z,1.45
2018-10-16T13:03:43.113Z,2.35
2018-10-16T13:06:12.079Z,1.37
2018-10-16T13:08:41.295Z,1.15
2018-10-16T13:11:10.480Z,3.52
2018-10-16T13:13:40.000Z,0.40
2018-10-16T13:16:09.256Z,4.30
2018-10-16T13:18:38.459Z,0.62
2018-10-16T13:21:07.558Z,0.75
2018-10-16T13:23:36.905Z,1.07
2018-10-16T13:26:06.126Z,3.47
2018-10-16T13:28:36.556Z,1.50
2018-10-16T13:31:05.711Z,1.15
2018-10-16T13:33:34.895Z,0.88
2018-10-16T13:36:04.413Z,0.98
2018-10-16T13:38:33.506Z,3.67
2018-10-16T13:41:03.408Z,3.50
2018-10-16T13:43:32.684Z,4.97
2018-10-16T13:46:01.876Z,4.60
2018-10-16T13:48:31.131Z,1.02
2018-10-16T13:51:00.564Z,1.62
2018-10-16T13:53:29.643Z,5.62
2018-10-16T13:55:58.738Z,4.35
2018-10-16T13:58:28.347Z,2.47
2018-10-16T14:00:57.636Z,3.67
2018-10-16T14:03:26.863Z,3.27
2018-10-16T14:05:56.307Z,4.50
2018-10-16T14:08:25.428Z,1.12
2018-10-16T14:10:54.422Z,2.50
2018-10-16T14:13:23.534Z,3.72
2018-10-16T14:15:53.283Z,4.03
2018-10-16T14:18:22.960Z,1.47
2018-10-16T14:20:51.979Z,2.00
2018-10-16T14:23:21.282Z,1.65
2018-10-16T14:25:50.440Z,4.65
2018-10-16T14:28:19.791Z,4.15
2018-10-16T14:30:48.947Z,2.30
2018-10-16T14:33:18.265Z,4.90
2018-10-16T14:35:47.591Z,2.08
2018-10-16T14:38:16.890Z,5.80
2018-10-16T14:40:45.946Z,2.00
2018-10-16T14:43:15.067Z,3.70
2018-10-16T14:45:44.142Z,4.33
2018-10-16T14:48:13.406Z,6.08
2018-10-16T14:50:42.871Z,4.37
2018-10-16T14:53:12.160Z,4.75
2018-10-16T14:55:41.351Z,8.08
2018-10-16T14:58:10.578Z,9.78
2018-10-16T15:00:39.727Z,4.12
2018-10-16T15:03:08.830Z,3.45
2018-10-16T15:05:38.246Z,6.45
2018-10-16T15:08:07.256Z,4.08
2018-10-16T15:10:36.649Z,2.85
2018-10-16T15:13:06.091Z,4.35
2018-10-16T15:15:35.324Z,3.30
2018-10-16T15:18:04.451Z,5.78
2018-10-16T15:20:33.734Z,6.28
2018-10-16T15:23:03.020Z,5.08
2018-10-16T15:25:32.143Z,9.70
2018-10-16T15:28:01.551Z,3.62
2018-10-16T15:30:30.562Z,8.35
2018-10-16T15:32:59.743Z,9.05
2018-10-16T15:35:29.511Z,8.70
2018-10-16T15:37:58.802Z,5.67
2018-10-16T15:40:28.078Z,3.85
2018-10-16T15:42:57.611Z,7.72
2018-10-16T15:45:26.767Z,12.55
2018-10-16T15:47:55.950Z,6.05
2018-10-16T15:50:25.095Z,6.90
2018-10-16T15:52:53.986Z,3.87
2018-10-16T15:55:23.262Z,4.00
2018-10-16T15:57:52.620Z,7.08
2018-10-16T16:00:21.864Z,4.58
2018-10-16T16:02:51.089Z,7.62
2018-10-16T16:05:20.300Z,5.17
2018-10-16T16:07:49.465Z,6.28
2018-10-16T16:10:18.461Z,4.35
2018-10-16T16:12:47.615Z,7.75
2018-10-16T16:15:16.646Z,3.22
2018-10-16T16:17:45.666Z,7.87
2018-10-16T16:20:16.041Z,5.65
2018-10-16T16:22:45.261Z,5.75
2018-10-16T16:25:15.263Z,4.47
2018-10-16T16:27:44.726Z,10.53
2018-10-16T16:30:15.677Z,6.30
2018-10-16T16:32:44.990Z,6.50
2018-10-16T16:35:14.067Z,13.20
2018-10-16T16:37:43.129Z,5.28
2018-10-16T16:40:13.953Z,6.75
2018-10-16T16:42:43.267Z,11.05
2018-10-16T16:45:12.804Z,11.60
2018-10-16T16:47:42.206Z,6.58
2018-10-16T16:50:12.252Z,5.65
2018-10-16T16:52:41.699Z,5.62
2018-10-16T16:55:12.743Z,7.97
2018-10-16T16:57:42.961Z,6.00
2018-10-16T17:00:13.446Z,6.83
2018-10-16T17:02:43.878Z,6.30
2018-10-16T17:05:13.735Z,8.08
2018-10-16T17:07:43.487Z,8.35
2018-10-16T17:10:12.592Z,10.60
2018-10-16T17:12:42.090Z,11.55
2018-10-16T17:15:13.239Z,10.45
2018-10-16T17:17:42.448Z,8.80
2018-10-16T17:20:12.291Z,7.33
2018-10-16T17:22:41.580Z,13.08
2018-10-16T17:25:12.677Z,14.78
2018-10-16T17:27:42.064Z,8.18
2018-10-16T17:30:13.140Z,9.78
2018-10-16T17:32:42.538Z,10.15
2018-10-16T17:35:12.424Z,13.00
2018-10-16T17:37:42.027Z,13.58
2018-10-16T17:40:13.326Z,12.13
2018-10-16T17:42:42.359Z,17.75
2018-10-16T17:45:12.679Z,13.22
2018-10-16T17:47:42.080Z,17.07
2018-10-16T17:50:12.987Z,21.73
2018-10-16T17:52:42.068Z,20.40
2018-10-16T17:55:12.208Z,24.85
2018-10-16T17:57:41.392Z,24.32
2018-10-16T18:00:14.015Z,20.32
2018-10-16T18:02:43.647Z,19.17
2018-10-16T18:05:13.094Z,24.98
2018-10-16T18:07:42.889Z,25.75
2018-10-16T18:10:12.054Z,19.10
2018-10-16T18:12:40.870Z,24.63
2018-10-16T18:15:11.819Z,22.67
2018-10-16T18:17:41.408Z,26.40
2018-10-16T18:20:12.399Z,27.90
2018-10-16T18:22:41.385Z,29.67
2018-10-16T18:25:10.948Z,34.73
2018-10-16T18:27:39.962Z,23.70
2018-10-16T18:30:09.861Z,21.52
2018-10-16T18:32:38.995Z,25.82
2018-10-16T18:35:08.443Z,27.73
2018-10-16T18:37:37.531Z,25.80
2018-10-16T18:40:08.435Z,20.95
2018-10-16T18:42:37.980Z,21.80
2018-10-16T18:45:07.788Z,22.10
2018-10-16T18:47:36.621Z,19.50
2018-10-16T18:50:07.220Z,24.40
2018-10-16T18:52:35.967Z,19.32
2018-10-16T18:55:05.502Z,25.20
2018-10-16T18:57:34.511Z,29.92
2018-10-16T19:00:03.485Z,18.57
2018-10-16T19:02:32.718Z,23.95
2018-10-16T19:05:01.551Z,20.45
2018-10-16T19:07:30.342Z,20.17
2018-10-16T19:09:59.270Z,24.72
2018-10-16T19:12:28.663Z,21.57
2018-10-16T19:14:57.653Z,21.30
2018-10-16T19:17:26.722Z,21.60
2018-10-16T19:19:56.105Z,32.88
2018-10-16T19:22:25.068Z,16.15
2018-10-16T19:24:53.979Z,18.00
2018-10-16T19:27:23.676Z,12.47
2018-10-16T19:29:52.627Z,10.98
2018-10-16T19:32:21.497Z,13.85
2018-10-16T19:34:51.472Z,7.87
2018-10-16T19:37:20.563Z,13.58
2018-10-16T19:39:56.576Z,7.60
2018-10-16T19:42:25.542Z,10.98
2018-10-16T19:44:54.578Z,10.68
2018-10-16T19:47:23.949Z,11.68
2018-10-16T19:49:53.014Z,13.93
2018-10-16T19:52:21.983Z,11.97
2018-10-16T19:54:51.015Z,15.58
2018-10-16T19:57:20.024Z,18.77
2018-10-16T19:59:49.126Z,14.23
2018-10-16T20:02:18.591Z,13.93
2018-10-16T20:04:47.524Z,13.08
2018-10-16T20:07:16.614Z,13.50
2018-10-16T20:09:46.104Z,13.98
2018-10-16T20:12:15.017Z,12.45
2018-10-16T20:14:43.856Z,19.25
2018-10-16T20:17:13.157Z,12.78
2018-10-16T20:19:42.678Z,16.10
2018-10-16T20:22:12.647Z,14.55
2018-10-16T20:24:41.695Z,16.80
2018-10-16T20:27:11.699Z,12.78
2018-10-16T20:29:40.878Z,15.25
2018-10-16T20:32:11.063Z,13.55
2018-10-16T20:34:40.030Z,17.98
2018-10-16T20:37:09.030Z,21.97
2018-10-16T20:39:38.292Z,19.05
2018-10-16T20:42:08.121Z,15.00
2018-10-16T20:44:37.343Z,27.40
2018-10-16T20:47:06.504Z,16.30
2018-10-16T20:49:35.563Z,17.05
2018-10-16T20:52:04.423Z,18.48
2018-10-16T20:54:33.780Z,18.98
2018-10-16T20:57:02.643Z,20.92
2018-10-16T20:59:31.645Z,19.65
2018-10-16T21:02:00.963Z,24.47
2018-10-16T21:04:29.967Z,24.02
2018-10-16T21:06:59.242Z,28.73
2018-10-16T21:09:28.314Z,26.15
2018-10-16T21:11:57.230Z,33.83
2018-10-16T21:14:27.139Z,29.63
2018-10-16T21:16:56.198Z,31.30
2018-10-16T21:19:25.404Z,43.92
2018-10-16T21:21:54.362Z,30.48
2018-10-16T21:24:23.427Z,28.42
2018-10-16T21:27:01.659Z,40.63
2018-10-16T21:29:31.420Z,33.70
2018-10-16T21:32:06.693Z,37.60
2018-10-16T21:34:38.674Z,39.67
2018-10-16T21:37:07.695Z,72.30
2018-10-16T21:39:36.732Z,41.88
2018-10-16T21:42:07.376Z,44.53
2018-10-16T21:44:36.413Z,41.75
2018-10-16T21:47:05.483Z,33.92
2018-10-16T21:49:36.327Z,42.65
2018-10-16T21:52:05.347Z,48.35
2018-10-16T21:54:34.373Z,44.45
2018-10-16T21:57:03.583Z,43.42
2018-10-16T21:59:33.317Z,42.58
2018-10-16T22:02:07.458Z,42.58
2018-10-16T22:04:36.279Z,41.50
2018-10-16T22:07:05.452Z,42.88
2018-10-16T22:09:34.602Z,41.33
2018-10-16T22:12:03.982Z,43.60
2018-10-16T22:14:33.010Z,40.95
2018-10-16T22:17:02.354Z,46.08
2018-10-16T22:19:35.438Z,50.70
2018-10-16T22:22:05.924Z,46.48
2018-10-16T22:24:35.211Z,43.70
2018-10-16T22:27:03.941Z,38.95
2018-10-16T22:29:33.190Z,41.25
2018-10-16T22:32:02.286Z,53.73
2018-10-16T22:34:31.150Z,46.33
2018-10-16T22:37:00.444Z,42.27
2018-10-16T22:39:29.573Z,50.67
2018-10-16T22:41:58.546Z,62.43
2018-10-16T22:44:27.896Z,48.58
2018-10-16T22:46:56.735Z,44.60
2018-10-16T22:49:25.665Z,47.88
2018-10-16T22:51:55.085Z,45.85
2018-10-16T22:54:27.320Z,41.23
2018-10-16T22:56:56.408Z,38.10
2018-10-16T22:59:25.694Z,43.52
2018-10-16T23:01:55.020Z,36.40
2018-10-16T23:04:24.474Z,35.98
2018-10-16T23:06:53.304Z,40.83
2018-10-16T23:09:22.330Z,31.68
2018-10-16T23:11:52.155Z,29.18
2018-10-16T23:14:21.114Z,30.82
2018-10-16T23:16:49.906Z,32.48
2018-10-16T23:19:19.482Z,28.30
2018-10-16T23:21:48.418Z,29.02
2018-10-16T23:24:17.527Z,32.88
2018-10-16T23:26:47.350Z,29.20
2018-10-16T23:29:16.507Z,26.90
2018-10-16T23:31:45.267Z,33.78
2018-10-16T23:34:14.578Z,32.55
2018-10-16T23:36:44.230Z,30.80
2018-10-16T23:39:14.943Z,38.80
2018-10-16T23:41:44.584Z,31.80
2018-10-16T23:44:13.475Z,29.80
2018-10-16T23:46:42.680Z,29.15
2018-10-16T23:49:11.581Z,35.08
2018-10-16T23:51:40.834Z,36.23
2018-10-16T23:54:09.837Z,27.80
2018-10-16T23:56:38.879Z,24.27
2018-10-16T23:59:07.867Z,24.80
